San Antonio International Airport
KSAT : now visible

Airfield :











YOU CAN JOIN US ON...

 
LOGIN :

Register | Disclaimer

   EN    FR    IT 

 









Legend :    VFR   Marginal VFR   IFR   Intensive IFR   Very Intensive IFR
Visi :
Ceiling :
>= 8 km
>= 3000ft
5 to 8 km
1000 to 3000 ft
1500m to 5 km
500 to 1000 ft
800 to 1500m
200 to 500 ft
< 800m
< 200 ft
Symbols :   Thunderstorms  Fog  Heavy snow  Heavy precipitations  Wind > 20 kt






- Airport Elevation : 809 ft
- IATA code : SAT


KSAT - San Antonio International

CURRENT METAR :
  • 201651Z 15014G20KT 10SM SCT030 BKN250 29/21 A3002 RMK AO2 SLP146 T02940206 $

EXPIRED METARs :
  • 201551Z 15010KT 10SM BKN020 BKN035 BKN250 28/21 A3003 RMK AO2 SLP149 T02780211 $
  • 201451Z 17012KT 10SM BKN015 BKN042 25/22 A3003 RMK AO2 SLP150 VCSH NE AND SW 60000 T02500217 53014 $

TAF KSAT
Valid from the 20 at 12:00 until the 21 at 18:00 UTC


201121Z 2012/2118 16010KT P6SM VCSH BKN014 OVC040
FM201600 16011KT P6SM BKN020
FM201800 15010KT P6SM SCT040
FM210700 15007KT P6SM OVC019
FM210900 15006KT P6SM OVC009
KZHU FIR / North America



MET'MAP, your aeronautical weather chart ! - Copyright ORBIFLY December 2007 - Disclaimer

ORBIFLY MET'MAP TEAM :

Programming & Development : Alexandra Zaïnal
Concept & original design : Baudouin d'Aumeries
Assistance for programming : Marc-Olivier Méhu
Technical & hardware support : Manuel Goepfert

Contact : metmap@orbifly.com




SOURCES & CREDITS :

   NOAA       Earth
Advisory